sensor_id;sensor_type;location;lat;lon;timestamp;P1;durP1;ratioP1;P2;durP2;ratioP2
14858;SDS011;7521;51.700;6.874;2023-08-07T00:00:15;1.83;;;0.70;;
14858;SDS011;7521;51.700;6.874;2023-08-07T00:03:21;3.63;;;1.10;;
14858;SDS011;7521;51.700;6.874;2023-08-07T00:06:26;2.73;;;0.90;;
14858;SDS011;7521;51.700;6.874;2023-08-07T00:09:31;3.47;;;0.93;;
14858;SDS011;7521;51.700;6.874;2023-08-07T00:12:36;4.93;;;1.07;;
14858;SDS011;7521;51.700;6.874;2023-08-07T00:15:42;2.90;;;0.80;;
14858;SDS011;7521;51.700;6.874;2023-08-07T00:18:47;3.28;;;0.70;;
14858;SDS011;7521;51.700;6.874;2023-08-07T00:21:52;3.80;;;0.80;;
14858;SDS011;7521;51.700;6.874;2023-08-07T00:24:57;2.38;;;0.93;;
14858;SDS011;7521;51.700;6.874;2023-08-07T00:28:02;2.47;;;0.98;;
14858;SDS011;7521;51.700;6.874;2023-08-07T00:31:08;8.00;;;1.70;;
14858;SDS011;7521;51.700;6.874;2023-08-07T00:34:13;5.22;;;1.23;;
14858;SDS011;7521;51.700;6.874;2023-08-07T00:37:18;5.65;;;1.33;;
14858;SDS011;7521;51.700;6.874;2023-08-07T00:40:23;4.35;;;1.70;;
14858;SDS011;7521;51.700;6.874;2023-08-07T00:43:28;9.27;;;1.98;;
14858;SDS011;7521;51.700;6.874;2023-08-07T00:46:33;10.10;;;2.90;;
14858;SDS011;7521;51.700;6.874;2023-08-07T00:49:39;5.57;;;2.90;;
14858;SDS011;7521;51.700;6.874;2023-08-07T00:52:45;6.70;;;2.73;;
14858;SDS011;7521;51.700;6.874;2023-08-07T00:55:50;5.83;;;2.00;;
14858;SDS011;7521;51.700;6.874;2023-08-07T00:58:56;9.03;;;2.50;;
14858;SDS011;7521;51.700;6.874;2023-08-07T01:02:01;6.13;;;2.37;;
14858;SDS011;7521;51.700;6.874;2023-08-07T01:05:07;11.07;;;2.67;;
14858;SDS011;7521;51.700;6.874;2023-08-07T01:08:12;5.53;;;1.93;;
14858;SDS011;7521;51.700;6.874;2023-08-07T01:11:30;7.03;;;2.10;;
14858;SDS011;7521;51.700;6.874;2023-08-07T01:17:54;6.10;;;2.23;;
14858;SDS011;7521;51.700;6.874;2023-08-07T01:21:00;7.73;;;2.23;;
14858;SDS011;7521;51.700;6.874;2023-08-07T01:24:05;6.73;;;1.73;;
14858;SDS011;7521;51.700;6.874;2023-08-07T01:27:14;4.83;;;1.57;;
14858;SDS011;7521;51.700;6.874;2023-08-07T01:30:33;5.97;;;1.73;;
14858;SDS011;7521;51.700;6.874;2023-08-07T01:33:47;5.13;;;1.50;;
14858;SDS011;7521;51.700;6.874;2023-08-07T01:36:54;2.50;;;1.40;;
14858;SDS011;7521;51.700;6.874;2023-08-07T01:40:00;7.67;;;1.57;;
14858;SDS011;7521;51.700;6.874;2023-08-07T01:43:06;4.90;;;1.53;;
14858;SDS011;7521;51.700;6.874;2023-08-07T01:46:12;3.00;;;1.20;;
14858;SDS011;7521;51.700;6.874;2023-08-07T01:49:17;6.07;;;1.20;;
14858;SDS011;7521;51.700;6.874;2023-08-07T01:52:22;7.78;;;1.45;;
14858;SDS011;7521;51.700;6.874;2023-08-07T01:55:28;4.83;;;1.40;;
14858;SDS011;7521;51.700;6.874;2023-08-07T01:58:33;5.05;;;1.20;;
14858;SDS011;7521;51.700;6.874;2023-08-07T02:01:38;2.83;;;1.27;;
14858;SDS011;7521;51.700;6.874;2023-08-07T02:04:43;3.30;;;1.02;;
14858;SDS011;7521;51.700;6.874;2023-08-07T02:07:48;3.13;;;1.20;;
14858;SDS011;7521;51.700;6.874;2023-08-07T02:10:53;3.90;;;1.20;;
14858;SDS011;7521;51.700;6.874;2023-08-07T02:13:59;2.37;;;1.00;;
14858;SDS011;7521;51.700;6.874;2023-08-07T02:17:04;2.67;;;1.00;;
14858;SDS011;7521;51.700;6.874;2023-08-07T02:20:09;3.67;;;1.00;;
14858;SDS011;7521;51.700;6.874;2023-08-07T02:23:15;8.60;;;1.60;;
14858;SDS011;7521;51.700;6.874;2023-08-07T02:26:20;4.57;;;1.17;;
14858;SDS011;7521;51.700;6.874;2023-08-07T02:29:25;4.80;;;1.23;;
14858;SDS011;7521;51.700;6.874;2023-08-07T02:32:30;4.47;;;1.00;;
14858;SDS011;7521;51.700;6.874;2023-08-07T02:35:35;4.80;;;1.50;;
14858;SDS011;7521;51.700;6.874;2023-08-07T02:38:41;3.90;;;1.20;;
14858;SDS011;7521;51.700;6.874;2023-08-07T02:41:46;2.92;;;1.00;;
14858;SDS011;7521;51.700;6.874;2023-08-07T02:44:51;4.30;;;1.27;;
14858;SDS011;7521;51.700;6.874;2023-08-07T02:47:56;5.25;;;1.45;;
14858;SDS011;7521;51.700;6.874;2023-08-07T02:51:01;4.32;;;1.73;;
14858;SDS011;7521;51.700;6.874;2023-08-07T02:54:06;10.52;;;1.88;;
14858;SDS011;7521;51.700;6.874;2023-08-07T02:57:12;6.87;;;2.10;;
14858;SDS011;7521;51.700;6.874;2023-08-07T03:00:17;6.50;;;2.33;;
14858;SDS011;7521;51.700;6.874;2023-08-07T03:03:22;8.37;;;2.10;;
14858;SDS011;7521;51.700;6.874;2023-08-07T03:06:30;7.20;;;2.90;;
14858;SDS011;7521;51.700;6.874;2023-08-07T03:09:35;10.97;;;2.87;;
14858;SDS011;7521;51.700;6.874;2023-08-07T03:12:40;10.02;;;3.17;;
14858;SDS011;7521;51.700;6.874;2023-08-07T03:15:45;13.87;;;3.87;;
14858;SDS011;7521;51.700;6.874;2023-08-07T03:18:54;10.80;;;2.77;;
14858;SDS011;7521;51.700;6.874;2023-08-07T03:21:59;10.20;;;3.70;;
14858;SDS011;7521;51.700;6.874;2023-08-07T03:25:04;10.10;;;3.47;;
14858;SDS011;7521;51.700;6.874;2023-08-07T03:28:09;13.23;;;3.77;;
14858;SDS011;7521;51.700;6.874;2023-08-07T03:31:14;13.27;;;3.60;;
14858;SDS011;7521;51.700;6.874;2023-08-07T03:34:20;11.75;;;3.47;;
14858;SDS011;7521;51.700;6.874;2023-08-07T03:37:25;8.50;;;3.73;;
14858;SDS011;7521;51.700;6.874;2023-08-07T03:40:30;12.10;;;3.70;;
14858;SDS011;7521;51.700;6.874;2023-08-07T03:43:35;13.63;;;3.60;;
14858;SDS011;7521;51.700;6.874;2023-08-07T03:46:40;12.68;;;3.80;;
14858;SDS011;7521;51.700;6.874;2023-08-07T03:49:45;8.63;;;3.80;;
14858;SDS011;7521;51.700;6.874;2023-08-07T03:52:51;11.67;;;3.73;;
14858;SDS011;7521;51.700;6.874;2023-08-07T03:55:56;11.98;;;3.60;;
14858;SDS011;7521;51.700;6.874;2023-08-07T03:59:01;13.00;;;3.83;;
14858;SDS011;7521;51.700;6.874;2023-08-07T04:02:07;11.13;;;3.27;;
14858;SDS011;7521;51.700;6.874;2023-08-07T04:05:12;9.45;;;3.15;;
14858;SDS011;7521;51.700;6.874;2023-08-07T04:08:17;10.03;;;3.67;;
14858;SDS011;7521;51.700;6.874;2023-08-07T04:11:22;10.13;;;3.30;;
14858;SDS011;7521;51.700;6.874;2023-08-07T04:14:27;12.02;;;3.25;;
14858;SDS011;7521;51.700;6.874;2023-08-07T04:17:32;11.60;;;3.45;;
14858;SDS011;7521;51.700;6.874;2023-08-07T04:20:38;10.98;;;3.65;;
14858;SDS011;7521;51.700;6.874;2023-08-07T04:23:43;11.35;;;3.85;;
14858;SDS011;7521;51.700;6.874;2023-08-07T04:26:48;13.77;;;4.82;;
14858;SDS011;7521;51.700;6.874;2023-08-07T04:29:54;13.47;;;3.20;;
14858;SDS011;7521;51.700;6.874;2023-08-07T04:32:59;11.93;;;3.30;;
14858;SDS011;7521;51.700;6.874;2023-08-07T04:36:04;9.70;;;2.90;;
14858;SDS011;7521;51.700;6.874;2023-08-07T04:39:09;11.13;;;3.47;;
14858;SDS011;7521;51.700;6.874;2023-08-07T04:42:14;12.52;;;4.10;;
14858;SDS011;7521;51.700;6.874;2023-08-07T04:45:19;9.48;;;2.97;;
14858;SDS011;7521;51.700;6.874;2023-08-07T04:48:25;8.27;;;2.53;;
14858;SDS011;7521;51.700;6.874;2023-08-07T04:51:30;12.97;;;3.47;;
14858;SDS011;7521;51.700;6.874;2023-08-07T04:54:36;10.37;;;2.63;;
14858;SDS011;7521;51.700;6.874;2023-08-07T04:57:41;7.50;;;2.65;;
14858;SDS011;7521;51.700;6.874;2023-08-07T05:00:46;11.48;;;2.67;;
14858;SDS011;7521;51.700;6.874;2023-08-07T05:03:52;6.07;;;2.27;;
14858;SDS011;7521;51.700;6.874;2023-08-07T05:06:57;8.95;;;2.80;;
14858;SDS011;7521;51.700;6.874;2023-08-07T05:10:02;9.87;;;2.97;;
14858;SDS011;7521;51.700;6.874;2023-08-07T05:13:07;7.10;;;2.97;;
14858;SDS011;7521;51.700;6.874;2023-08-07T05:16:12;8.30;;;3.00;;
14858;SDS011;7521;51.700;6.874;2023-08-07T05:19:18;11.10;;;3.08;;
14858;SDS011;7521;51.700;6.874;2023-08-07T05:22:23;11.18;;;2.85;;
14858;SDS011;7521;51.700;6.874;2023-08-07T05:25:28;9.70;;;2.70;;
14858;SDS011;7521;51.700;6.874;2023-08-07T05:28:33;7.97;;;2.63;;
14858;SDS011;7521;51.700;6.874;2023-08-07T05:31:38;5.43;;;2.20;;
14858;SDS011;7521;51.700;6.874;2023-08-07T05:34:43;7.88;;;2.80;;
14858;SDS011;7521;51.700;6.874;2023-08-07T05:37:49;10.27;;;2.80;;
14858;SDS011;7521;51.700;6.874;2023-08-07T05:40:54;6.30;;;2.20;;
14858;SDS011;7521;51.700;6.874;2023-08-07T05:43:59;6.90;;;2.78;;
14858;SDS011;7521;51.700;6.874;2023-08-07T05:47:04;8.32;;;3.08;;
14858;SDS011;7521;51.700;6.874;2023-08-07T05:50:09;11.83;;;2.57;;
14858;SDS011;7521;51.700;6.874;2023-08-07T05:53:15;8.67;;;3.47;;
14858;SDS011;7521;51.700;6.874;2023-08-07T05:56:20;8.25;;;3.20;;
14858;SDS011;7521;51.700;6.874;2023-08-07T05:59:25;9.30;;;3.73;;
14858;SDS011;7521;51.700;6.874;2023-08-07T06:02:31;6.87;;;3.10;;
14858;SDS011;7521;51.700;6.874;2023-08-07T06:05:36;8.00;;;2.83;;
14858;SDS011;7521;51.700;6.874;2023-08-07T06:08:41;9.57;;;2.78;;
14858;SDS011;7521;51.700;6.874;2023-08-07T06:11:46;7.03;;;2.55;;
14858;SDS011;7521;51.700;6.874;2023-08-07T06:14:52;7.80;;;2.57;;
14858;SDS011;7521;51.700;6.874;2023-08-07T06:17:57;5.67;;;2.10;;
14858;SDS011;7521;51.700;6.874;2023-08-07T06:21:02;5.25;;;2.05;;
14858;SDS011;7521;51.700;6.874;2023-08-07T06:24:09;6.93;;;2.43;;
14858;SDS011;7521;51.700;6.874;2023-08-07T06:27:14;6.57;;;2.50;;
14858;SDS011;7521;51.700;6.874;2023-08-07T06:30:19;8.17;;;2.20;;
14858;SDS011;7521;51.700;6.874;2023-08-07T06:33:25;3.40;;;2.05;;
14858;SDS011;7521;51.700;6.874;2023-08-07T06:36:30;5.35;;;2.42;;
14858;SDS011;7521;51.700;6.874;2023-08-07T06:39:35;5.20;;;2.30;;
14858;SDS011;7521;51.700;6.874;2023-08-07T06:42:40;5.78;;;2.20;;
14858;SDS011;7521;51.700;6.874;2023-08-07T06:45:51;3.83;;;1.75;;
14858;SDS011;7521;51.700;6.874;2023-08-07T06:48:57;4.37;;;2.20;;
14858;SDS011;7521;51.700;6.874;2023-08-07T06:52:02;4.32;;;2.15;;
14858;SDS011;7521;51.700;6.874;2023-08-07T06:55:07;5.77;;;3.07;;
14858;SDS011;7521;51.700;6.874;2023-08-07T06:58:13;6.00;;;2.27;;
14858;SDS011;7521;51.700;6.874;2023-08-07T07:01:18;7.53;;;2.53;;
14858;SDS011;7521;51.700;6.874;2023-08-07T07:04:23;5.47;;;2.17;;
14858;SDS011;7521;51.700;6.874;2023-08-07T07:07:28;7.27;;;2.60;;
14858;SDS011;7521;51.700;6.874;2023-08-07T07:10:33;5.50;;;2.40;;
14858;SDS011;7521;51.700;6.874;2023-08-07T07:13:39;7.10;;;2.00;;
14858;SDS011;7521;51.700;6.874;2023-08-07T07:16:44;6.28;;;2.40;;
14858;SDS011;7521;51.700;6.874;2023-08-07T07:19:49;3.70;;;2.35;;
14858;SDS011;7521;51.700;6.874;2023-08-07T07:22:54;6.47;;;2.70;;
14858;SDS011;7521;51.700;6.874;2023-08-07T07:25:59;7.85;;;3.35;;
14858;SDS011;7521;51.700;6.874;2023-08-07T07:29:04;8.15;;;2.45;;
14858;SDS011;7521;51.700;6.874;2023-08-07T07:32:10;8.47;;;2.87;;
14858;SDS011;7521;51.700;6.874;2023-08-07T07:35:15;6.50;;;2.70;;
14858;SDS011;7521;51.700;6.874;2023-08-07T07:38:20;8.30;;;2.33;;
14858;SDS011;7521;51.700;6.874;2023-08-07T07:41:25;5.20;;;2.07;;
14858;SDS011;7521;51.700;6.874;2023-08-07T07:44:31;5.80;;;2.23;;
14858;SDS011;7521;51.700;6.874;2023-08-07T07:47:36;7.10;;;2.57;;
14858;SDS011;7521;51.700;6.874;2023-08-07T07:50:41;4.30;;;2.25;;
14858;SDS011;7521;51.700;6.874;2023-08-07T07:53:46;8.48;;;2.53;;
14858;SDS011;7521;51.700;6.874;2023-08-07T07:56:52;3.87;;;2.13;;
14858;SDS011;7521;51.700;6.874;2023-08-07T07:59:57;6.93;;;2.15;;
14858;SDS011;7521;51.700;6.874;2023-08-07T08:03:02;6.97;;;2.30;;
14858;SDS011;7521;51.700;6.874;2023-08-07T08:06:07;3.72;;;1.45;;
14858;SDS011;7521;51.700;6.874;2023-08-07T08:09:14;3.90;;;1.67;;
14858;SDS011;7521;51.700;6.874;2023-08-07T08:12:19;10.98;;;2.70;;
14858;SDS011;7521;51.700;6.874;2023-08-07T08:15:24;13.27;;;3.47;;
14858;SDS011;7521;51.700;6.874;2023-08-07T08:18:30;9.23;;;3.23;;
14858;SDS011;7521;51.700;6.874;2023-08-07T08:21:35;13.63;;;3.73;;
14858;SDS011;7521;51.700;6.874;2023-08-07T08:24:40;10.50;;;3.67;;
14858;SDS011;7521;51.700;6.874;2023-08-07T08:27:45;11.43;;;3.72;;
14858;SDS011;7521;51.700;6.874;2023-08-07T08:30:50;12.13;;;3.80;;
14858;SDS011;7521;51.700;6.874;2023-08-07T08:33:56;10.53;;;4.47;;
14858;SDS011;7521;51.700;6.874;2023-08-07T08:37:01;12.70;;;3.77;;
14858;SDS011;7521;51.700;6.874;2023-08-07T08:40:07;15.37;;;4.67;;
14858;SDS011;7521;51.700;6.874;2023-08-07T08:43:13;18.57;;;4.40;;
14858;SDS011;7521;51.700;6.874;2023-08-07T08:46:19;12.90;;;4.70;;
14858;SDS011;7521;51.700;6.874;2023-08-07T08:49:28;11.37;;;4.53;;
14858;SDS011;7521;51.700;6.874;2023-08-07T08:52:36;14.93;;;3.53;;
14858;SDS011;7521;51.700;6.874;2023-08-07T08:55:42;9.03;;;3.60;;
14858;SDS011;7521;51.700;6.874;2023-08-07T08:58:51;14.93;;;3.70;;
14858;SDS011;7521;51.700;6.874;2023-08-07T09:01:56;11.73;;;3.57;;
14858;SDS011;7521;51.700;6.874;2023-08-07T09:05:01;10.20;;;3.30;;
14858;SDS011;7521;51.700;6.874;2023-08-07T09:08:07;9.77;;;3.70;;
14858;SDS011;7521;51.700;6.874;2023-08-07T09:11:13;7.00;;;3.30;;
14858;SDS011;7521;51.700;6.874;2023-08-07T09:14:20;11.47;;;3.33;;
14858;SDS011;7521;51.700;6.874;2023-08-07T09:17:27;8.50;;;3.17;;
14858;SDS011;7521;51.700;6.874;2023-08-07T09:20:35;12.20;;;3.43;;
14858;SDS011;7521;51.700;6.874;2023-08-07T09:23:40;7.93;;;2.57;;
14858;SDS011;7521;51.700;6.874;2023-08-07T09:26:46;10.02;;;2.90;;
14858;SDS011;7521;51.700;6.874;2023-08-07T09:29:51;8.82;;;2.47;;
14858;SDS011;7521;51.700;6.874;2023-08-07T09:32:59;7.53;;;2.53;;
14858;SDS011;7521;51.700;6.874;2023-08-07T09:36:05;9.73;;;2.60;;
14858;SDS011;7521;51.700;6.874;2023-08-07T09:39:11;6.77;;;3.00;;
14858;SDS011;7521;51.700;6.874;2023-08-07T09:42:16;7.13;;;3.00;;
14858;SDS011;7521;51.700;6.874;2023-08-07T09:45:25;13.23;;;3.50;;
14858;SDS011;7521;51.700;6.874;2023-08-07T09:48:31;7.80;;;2.87;;
14858;SDS011;7521;51.700;6.874;2023-08-07T09:51:45;8.63;;;3.00;;
14858;SDS011;7521;51.700;6.874;2023-08-07T09:54:51;10.00;;;3.27;;
14858;SDS011;7521;51.700;6.874;2023-08-07T09:57:56;11.73;;;4.78;;
14858;SDS011;7521;51.700;6.874;2023-08-07T10:01:04;12.60;;;3.40;;
14858;SDS011;7521;51.700;6.874;2023-08-07T10:04:09;6.70;;;3.10;;
14858;SDS011;7521;51.700;6.874;2023-08-07T10:07:20;9.17;;;3.03;;
14858;SDS011;7521;51.700;6.874;2023-08-07T10:10:25;7.90;;;2.63;;
14858;SDS011;7521;51.700;6.874;2023-08-07T10:13:31;9.47;;;2.90;;
14858;SDS011;7521;51.700;6.874;2023-08-07T10:16:36;12.53;;;3.07;;
14858;SDS011;7521;51.700;6.874;2023-08-07T10:19:44;9.97;;;2.60;;
14858;SDS011;7521;51.700;6.874;2023-08-07T10:22:49;8.13;;;2.70;;
14858;SDS011;7521;51.700;6.874;2023-08-07T10:25:56;10.47;;;2.90;;
14858;SDS011;7521;51.700;6.874;2023-08-07T10:29:02;9.17;;;2.60;;
14858;SDS011;7521;51.700;6.874;2023-08-07T10:32:09;14.77;;;3.13;;
14858;SDS011;7521;51.700;6.874;2023-08-07T10:35:24;11.83;;;3.27;;
14858;SDS011;7521;51.700;6.874;2023-08-07T10:38:29;11.13;;;2.77;;
14858;SDS011;7521;51.700;6.874;2023-08-07T10:41:53;7.57;;;2.33;;
14858;SDS011;7521;51.700;6.874;2023-08-07T10:45:00;11.50;;;3.00;;
14858;SDS011;7521;51.700;6.874;2023-08-07T10:48:07;7.33;;;2.90;;
14858;SDS011;7521;51.700;6.874;2023-08-07T10:51:13;9.73;;;2.67;;
14858;SDS011;7521;51.700;6.874;2023-08-07T10:54:18;5.47;;;2.70;;
14858;SDS011;7521;51.700;6.874;2023-08-07T10:57:24;9.63;;;2.43;;
14858;SDS011;7521;51.700;6.874;2023-08-07T11:00:36;8.43;;;2.67;;
14858;SDS011;7521;51.700;6.874;2023-08-07T11:03:42;9.27;;;2.47;;
14858;SDS011;7521;51.700;6.874;2023-08-07T11:06:47;11.43;;;2.70;;
14858;SDS011;7521;51.700;6.874;2023-08-07T11:09:53;10.43;;;2.57;;
14858;SDS011;7521;51.700;6.874;2023-08-07T11:12:58;6.00;;;2.33;;
14858;SDS011;7521;51.700;6.874;2023-08-07T11:16:03;7.78;;;2.40;;
14858;SDS011;7521;51.700;6.874;2023-08-07T11:19:09;12.53;;;2.97;;
14858;SDS011;7521;51.700;6.874;2023-08-07T11:22:15;9.20;;;2.20;;
14858;SDS011;7521;51.700;6.874;2023-08-07T11:25:21;9.47;;;2.27;;
14858;SDS011;7521;51.700;6.874;2023-08-07T11:28:26;7.93;;;2.57;;
14858;SDS011;7521;51.700;6.874;2023-08-07T11:31:31;8.82;;;2.35;;
14858;SDS011;7521;51.700;6.874;2023-08-07T11:34:36;5.35;;;2.25;;
14858;SDS011;7521;51.700;6.874;2023-08-07T11:37:47;6.72;;;2.17;;
14858;SDS011;7521;51.700;6.874;2023-08-07T11:40:56;10.50;;;2.80;;
14858;SDS011;7521;51.700;6.874;2023-08-07T11:44:01;8.40;;;2.27;;
14858;SDS011;7521;51.700;6.874;2023-08-07T11:47:07;9.40;;;2.10;;
14858;SDS011;7521;51.700;6.874;2023-08-07T11:50:13;7.90;;;2.13;;
14858;SDS011;7521;51.700;6.874;2023-08-07T11:53:19;10.60;;;2.53;;
14858;SDS011;7521;51.700;6.874;2023-08-07T11:56:24;8.03;;;2.47;;
14858;SDS011;7521;51.700;6.874;2023-08-07T11:59:29;8.55;;;2.45;;
14858;SDS011;7521;51.700;6.874;2023-08-07T12:02:35;9.07;;;2.05;;
14858;SDS011;7521;51.700;6.874;2023-08-07T12:05:40;5.47;;;2.30;;
14858;SDS011;7521;51.700;6.874;2023-08-07T12:08:49;6.93;;;2.03;;
14858;SDS011;7521;51.700;6.874;2023-08-07T12:11:59;10.13;;;2.60;;
14858;SDS011;7521;51.700;6.874;2023-08-07T12:15:10;9.60;;;2.73;;
14858;SDS011;7521;51.700;6.874;2023-08-07T12:18:17;8.70;;;2.10;;
14858;SDS011;7521;51.700;6.874;2023-08-07T12:21:22;9.57;;;2.27;;
14858;SDS011;7521;51.700;6.874;2023-08-07T12:24:29;6.93;;;2.10;;
14858;SDS011;7521;51.700;6.874;2023-08-07T12:27:34;9.52;;;2.25;;
14858;SDS011;7521;51.700;6.874;2023-08-07T12:30:39;6.82;;;2.08;;
14858;SDS011;7521;51.700;6.874;2023-08-07T12:33:47;5.77;;;2.33;;
14858;SDS011;7521;51.700;6.874;2023-08-07T12:36:52;6.50;;;2.30;;
14858;SDS011;7521;51.700;6.874;2023-08-07T12:39:58;7.40;;;2.10;;
14858;SDS011;7521;51.700;6.874;2023-08-07T12:43:06;7.45;;;2.22;;
14858;SDS011;7521;51.700;6.874;2023-08-07T12:46:11;5.03;;;2.00;;
14858;SDS011;7521;51.700;6.874;2023-08-07T12:49:17;5.95;;;2.40;;
14858;SDS011;7521;51.700;6.874;2023-08-07T12:52:23;5.23;;;1.87;;
14858;SDS011;7521;51.700;6.874;2023-08-07T12:55:29;6.83;;;1.83;;
14858;SDS011;7521;51.700;6.874;2023-08-07T12:58:34;5.93;;;1.50;;
14858;SDS011;7521;51.700;6.874;2023-08-07T13:01:40;5.23;;;2.00;;
14858;SDS011;7521;51.700;6.874;2023-08-07T13:04:45;8.93;;;2.05;;
14858;SDS011;7521;51.700;6.874;2023-08-07T13:07:51;6.47;;;1.73;;
14858;SDS011;7521;51.700;6.874;2023-08-07T13:10:59;5.73;;;1.70;;
14858;SDS011;7521;51.700;6.874;2023-08-07T13:14:04;8.17;;;2.20;;
14858;SDS011;7521;51.700;6.874;2023-08-07T13:17:11;6.40;;;1.83;;
14858;SDS011;7521;51.700;6.874;2023-08-07T13:20:16;8.30;;;1.85;;
14858;SDS011;7521;51.700;6.874;2023-08-07T13:23:22;9.60;;;2.30;;
14858;SDS011;7521;51.700;6.874;2023-08-07T13:26:27;7.73;;;2.87;;
14858;SDS011;7521;51.700;6.874;2023-08-07T13:29:33;9.17;;;2.77;;
14858;SDS011;7521;51.700;6.874;2023-08-07T13:32:39;6.40;;;2.33;;
14858;SDS011;7521;51.700;6.874;2023-08-07T13:35:44;10.23;;;2.97;;
14858;SDS011;7521;51.700;6.874;2023-08-07T13:38:49;14.57;;;2.83;;
14858;SDS011;7521;51.700;6.874;2023-08-07T13:41:56;8.50;;;2.60;;
14858;SDS011;7521;51.700;6.874;2023-08-07T13:45:05;9.83;;;2.93;;
14858;SDS011;7521;51.700;6.874;2023-08-07T13:48:10;8.27;;;3.40;;
14858;SDS011;7521;51.700;6.874;2023-08-07T13:51:15;6.30;;;2.70;;
14858;SDS011;7521;51.700;6.874;2023-08-07T13:54:21;7.37;;;2.40;;
14858;SDS011;7521;51.700;6.874;2023-08-07T13:57:26;7.40;;;3.00;;
14858;SDS011;7521;51.700;6.874;2023-08-07T14:00:31;8.93;;;3.20;;
14858;SDS011;7521;51.700;6.874;2023-08-07T14:03:39;8.87;;;2.67;;
14858;SDS011;7521;51.700;6.874;2023-08-07T14:06:44;9.48;;;2.45;;
14858;SDS011;7521;51.700;6.874;2023-08-07T14:09:49;8.43;;;2.73;;
14858;SDS011;7521;51.700;6.874;2023-08-07T14:12:54;6.03;;;2.40;;
14858;SDS011;7521;51.700;6.874;2023-08-07T14:16:00;6.47;;;2.57;;
14858;SDS011;7521;51.700;6.874;2023-08-07T14:19:05;7.07;;;2.97;;
14858;SDS011;7521;51.700;6.874;2023-08-07T14:22:10;6.03;;;2.53;;
14858;SDS011;7521;51.700;6.874;2023-08-07T14:25:15;7.70;;;3.10;;
14858;SDS011;7521;51.700;6.874;2023-08-07T14:28:21;6.03;;;2.20;;
14858;SDS011;7521;51.700;6.874;2023-08-07T14:31:26;4.47;;;2.00;;
14858;SDS011;7521;51.700;6.874;2023-08-07T14:34:31;5.27;;;1.77;;
14858;SDS011;7521;51.700;6.874;2023-08-07T14:37:36;4.57;;;1.80;;
14858;SDS011;7521;51.700;6.874;2023-08-07T14:40:41;5.17;;;2.00;;
14858;SDS011;7521;51.700;6.874;2023-08-07T14:43:48;4.40;;;2.03;;
14858;SDS011;7521;51.700;6.874;2023-08-07T14:46:53;8.68;;;2.45;;
14858;SDS011;7521;51.700;6.874;2023-08-07T14:49:58;7.87;;;2.33;;
14858;SDS011;7521;51.700;6.874;2023-08-07T14:53:04;9.60;;;2.27;;
14858;SDS011;7521;51.700;6.874;2023-08-07T14:56:09;6.53;;;1.98;;
14858;SDS011;7521;51.700;6.874;2023-08-07T14:59:14;6.90;;;1.90;;
14858;SDS011;7521;51.700;6.874;2023-08-07T15:02:19;3.23;;;1.80;;
14858;SDS011;7521;51.700;6.874;2023-08-07T15:05:25;8.37;;;2.00;;
14858;SDS011;7521;51.700;6.874;2023-08-07T15:08:30;9.20;;;2.40;;
14858;SDS011;7521;51.700;6.874;2023-08-07T15:11:35;4.43;;;2.00;;
14858;SDS011;7521;51.700;6.874;2023-08-07T15:14:40;6.63;;;1.87;;
14858;SDS011;7521;51.700;6.874;2023-08-07T15:17:46;4.97;;;1.52;;
14858;SDS011;7521;51.700;6.874;2023-08-07T15:20:51;7.25;;;1.88;;
14858;SDS011;7521;51.700;6.874;2023-08-07T15:23:56;8.47;;;2.10;;
14858;SDS011;7521;51.700;6.874;2023-08-07T15:27:01;8.30;;;1.70;;
14858;SDS011;7521;51.700;6.874;2023-08-07T15:30:07;8.13;;;2.00;;
14858;SDS011;7521;51.700;6.874;2023-08-07T15:33:12;9.20;;;2.20;;
14858;SDS011;7521;51.700;6.874;2023-08-07T15:36:17;5.50;;;2.05;;
14858;SDS011;7521;51.700;6.874;2023-08-07T15:39:22;5.40;;;1.87;;
14858;SDS011;7521;51.700;6.874;2023-08-07T15:42:27;7.28;;;1.88;;
14858;SDS011;7521;51.700;6.874;2023-08-07T15:45:33;4.43;;;1.40;;
14858;SDS011;7521;51.700;6.874;2023-08-07T15:48:38;4.80;;;1.50;;
14858;SDS011;7521;51.700;6.874;2023-08-07T15:51:43;3.00;;;1.50;;
14858;SDS011;7521;51.700;6.874;2023-08-07T15:54:48;1.83;;;1.00;;
14858;SDS011;7521;51.700;6.874;2023-08-07T15:57:53;4.40;;;1.43;;
14858;SDS011;7521;51.700;6.874;2023-08-07T16:00:59;7.65;;;1.65;;
14858;SDS011;7521;51.700;6.874;2023-08-07T16:04:04;5.53;;;1.40;;
14858;SDS011;7521;51.700;6.874;2023-08-07T16:07:09;2.50;;;1.30;;
14858;SDS011;7521;51.700;6.874;2023-08-07T16:10:15;1.73;;;1.20;;
14858;SDS011;7521;51.700;6.874;2023-08-07T16:13:21;3.60;;;1.20;;
14858;SDS011;7521;51.700;6.874;2023-08-07T16:16:29;2.77;;;1.20;;
14858;SDS011;7521;51.700;6.874;2023-08-07T16:19:34;3.30;;;1.20;;
14858;SDS011;7521;51.700;6.874;2023-08-07T16:22:39;5.65;;;1.48;;
14858;SDS011;7521;51.700;6.874;2023-08-07T16:25:44;2.47;;;1.40;;
14858;SDS011;7521;51.700;6.874;2023-08-07T16:28:50;2.50;;;1.20;;
14858;SDS011;7521;51.700;6.874;2023-08-07T16:31:55;3.50;;;1.20;;
14858;SDS011;7521;51.700;6.874;2023-08-07T16:35:00;5.43;;;1.20;;
14858;SDS011;7521;51.700;6.874;2023-08-07T16:38:06;7.40;;;1.57;;
14858;SDS011;7521;51.700;6.874;2023-08-07T16:41:11;4.93;;;1.60;;
14858;SDS011;7521;51.700;6.874;2023-08-07T16:44:16;2.85;;;1.70;;
14858;SDS011;7521;51.700;6.874;2023-08-07T16:47:21;3.17;;;1.60;;
14858;SDS011;7521;51.700;6.874;2023-08-07T16:50:27;8.53;;;1.73;;
14858;SDS011;7521;51.700;6.874;2023-08-07T16:53:33;5.73;;;2.03;;
14858;SDS011;7521;51.700;6.874;2023-08-07T16:56:38;4.18;;;1.95;;
14858;SDS011;7521;51.700;6.874;2023-08-07T16:59:46;5.68;;;1.70;;
14858;SDS011;7521;51.700;6.874;2023-08-07T17:02:51;3.47;;;1.77;;
14858;SDS011;7521;51.700;6.874;2023-08-07T17:05:57;6.03;;;1.80;;
14858;SDS011;7521;51.700;6.874;2023-08-07T17:09:03;4.57;;;1.80;;
14858;SDS011;7521;51.700;6.874;2023-08-07T17:12:08;6.43;;;1.90;;
14858;SDS011;7521;51.700;6.874;2023-08-07T17:15:13;4.53;;;1.90;;
14858;SDS011;7521;51.700;6.874;2023-08-07T17:18:18;5.78;;;1.80;;
14858;SDS011;7521;51.700;6.874;2023-08-07T17:21:23;6.60;;;1.90;;
14858;SDS011;7521;51.700;6.874;2023-08-07T17:24:29;7.83;;;2.17;;
14858;SDS011;7521;51.700;6.874;2023-08-07T17:27:34;3.50;;;1.80;;
14858;SDS011;7521;51.700;6.874;2023-08-07T17:30:39;5.15;;;2.00;;
14858;SDS011;7521;51.700;6.874;2023-08-07T17:33:44;5.10;;;1.67;;
14858;SDS011;7521;51.700;6.874;2023-08-07T17:36:49;7.45;;;1.90;;
14858;SDS011;7521;51.700;6.874;2023-08-07T17:39:54;4.20;;;1.77;;
14858;SDS011;7521;51.700;6.874;2023-08-07T17:43:00;4.68;;;1.90;;
14858;SDS011;7521;51.700;6.874;2023-08-07T17:46:05;3.17;;;1.80;;
14858;SDS011;7521;51.700;6.874;2023-08-07T17:49:10;7.75;;;2.30;;
14858;SDS011;7521;51.700;6.874;2023-08-07T17:52:15;5.45;;;2.08;;
14858;SDS011;7521;51.700;6.874;2023-08-07T17:55:20;5.40;;;2.30;;
14858;SDS011;7521;51.700;6.874;2023-08-07T17:58:26;2.87;;;1.57;;
14858;SDS011;7521;51.700;6.874;2023-08-07T18:01:31;3.37;;;1.53;;
14858;SDS011;7521;51.700;6.874;2023-08-07T18:04:37;4.60;;;1.43;;
14858;SDS011;7521;51.700;6.874;2023-08-07T18:07:42;4.53;;;2.10;;
14858;SDS011;7521;51.700;6.874;2023-08-07T18:10:47;3.40;;;1.50;;
14858;SDS011;7521;51.700;6.874;2023-08-07T18:13:52;3.67;;;1.33;;
14858;SDS011;7521;51.700;6.874;2023-08-07T18:16:58;4.17;;;1.77;;
14858;SDS011;7521;51.700;6.874;2023-08-07T18:20:03;2.38;;;1.65;;
14858;SDS011;7521;51.700;6.874;2023-08-07T18:23:11;2.77;;;1.43;;
14858;SDS011;7521;51.700;6.874;2023-08-07T18:26:16;2.13;;;1.70;;
14858;SDS011;7521;51.700;6.874;2023-08-07T18:29:21;2.50;;;1.70;;
14858;SDS011;7521;51.700;6.874;2023-08-07T18:32:26;3.25;;;1.40;;
14858;SDS011;7521;51.700;6.874;2023-08-07T18:35:31;2.97;;;1.40;;
14858;SDS011;7521;51.700;6.874;2023-08-07T18:38:37;3.57;;;1.37;;
14858;SDS011;7521;51.700;6.874;2023-08-07T18:41:42;4.07;;;1.27;;
14858;SDS011;7521;51.700;6.874;2023-08-07T18:44:47;3.10;;;1.50;;
14858;SDS011;7521;51.700;6.874;2023-08-07T18:47:52;3.20;;;1.50;;
14858;SDS011;7521;51.700;6.874;2023-08-07T18:50:57;3.80;;;1.90;;
14858;SDS011;7521;51.700;6.874;2023-08-07T18:54:04;2.13;;;1.20;;